Flight Track Log - Related Links

Times and Time Zones

All times are in EST time to prevent confusion due to time zone crossing. See the SKV7370 flight status page for this flight to view local times or setup timezone preferences in your user account.

Time Position Orientation Groundspeed Altitude Reporting Facility
EST Latitude Longitude Course Direction KTS MPH feet Rate Location/Type
Fri 09:36:28 PM 43.6500 -79.6167 117° Southeast 120 138 2,500  Level Toronto Center
Fri 09:37:28 PM 43.6000 -79.6500 206° Southwest 190 219 4,600 2,200 Climbing Toronto Center
Fri 09:38:28 PM 43.5500 -79.6333 166° South 270 311 6,900 1,200 Climbing Toronto Center
Fri 09:39:28 PM 43.5000 -79.5333 125° Southeast 290 334 7,000 350 Climbing Toronto Center
Fri 09:40:28 PM 43.5167 -79.4333 77° East 300 345 7,600 1,850 Climbing Toronto Center
Fri 09:41:28 PM 43.5167 -79.3167 90° East 320 368 10,700 2,400 Climbing Toronto Center
Fri 09:42:00 PM 43.3662 -78.8861 117° Southeast  Level FlightAware Approximate
Fri 09:42:28 PM 43.5000 -79.1667 99° East 370 426 12,400  Level Toronto Center
Fri 09:43:28 PM 43.4667 -79.0333 109° East 370 426 14,800 2,200 Climbing Toronto Center
Fri 09:44:28 PM 43.4167 -78.9000 117° Southeast 390 449 16,800 1,850 Climbing Toronto Center
Fri 09:45:28 PM 43.3667 -78.7833 120° Southeast 400 460 18,500 1,636 Climbing Toronto Center
Fri 09:46:18 PM 43.3219 -78.7136 131° Southeast 401 461 19,800 1,784 Climbing Cleveland Center
Fri 09:47:19 PM 43.2456 -78.5569 124° Southeast 411 473 21,800 1,561 Climbing Cleveland Center
Fri 09:48:21 PM 43.1786 -78.4206 124° Southeast 425 489 23,000 1,073 Climbing Cleveland Center
Fri 09:49:22 PM 43.1089 -78.2803 124° Southeast 441 507 24,000 1,131 Climbing Cleveland Center
Fri 09:50:23 PM 43.0356 -78.1319 124° Southeast 462 532 25,300 1,366 Climbing Cleveland Center
Fri 09:51:25 PM 42.9294 -78.0406 148° Southeast 451 519 26,800 1,268 Climbing Cleveland Center
Fri 09:52:26 PM 42.8183 -78.0392 179° South 402 463 27,900 1,082 Climbing Cleveland Center
Fri 09:53:27 PM 42.7075 -78.0472 183° South 405 466 29,000 537 Climbing Cleveland Center
Fri 09:54:29 PM 42.5731 -78.0567 183° South 407 468 29,000  Level Cleveland Center
Fri 09:55:30 PM 42.4611 -78.0631 182° South 407 468 29,000  Level Cleveland Center
Fri 09:56:31 PM 42.3508 -78.0717 183° South 403 464 29,000  Level Cleveland Center
Fri 09:57:33 PM 42.2389 -78.0786 183° South 404 465 29,000  Level Cleveland Center
Fri 09:58:34 PM 42.1264 -78.0881 184° South 406 467 29,000  Level Cleveland Center
Fri 09:59:35 PM 42.0153 -78.0947 183° South 403 464 29,000  Level Cleveland Center
Fri 10:00:37 PM 41.9036 -78.1033 183° South 404 465 29,000 -341 Level Cleveland Center
Fri 10:01:38 PM 41.7719 -78.1106 182° South 405 466 28,300 -836 Descending Cleveland Center
Fri 10:02:39 PM 41.6622 -78.1169 182° South 399 459 27,300 -634 Descending Cleveland Center
Fri 10:03:41 PM 41.5517 -78.1244 183° South 398 458 27,000 -146 Descending Cleveland Center
Fri 10:04:42 PM 41.4406 -78.1308 182° South 400 460 27,000  Level Cleveland Center
Fri 10:05:14 PM 41.3744 -78.1339 182° South 402 463 27,000  Level New York Center
Fri 10:06:14 PM 41.2633 -78.1411 183° South 424 488 27,000  Level New York Center
Fri 10:07:14 PM 41.1525 -78.1153 170° South 414 476 27,000  Level New York Center
Fri 10:07:46 PM 41.1053 -78.0906 158° South 430 495 27,000  Level Cleveland Center
Fri 10:08:47 PM 40.9919 -78.0322 159° South 434 499 27,000 -634 Level Cleveland Center
Fri 10:09:49 PM 40.8861 -77.9511 150° Southeast 462 532 25,700 -1,317 Descending Cleveland Center
Fri 10:10:50 PM 40.8008 -77.8158 130° Southeast 479 551 24,300 -1,574 Descending Cleveland Center
Fri 10:11:51 PM 40.7142 -77.6544 125° Southeast 474 545 22,500 -1,610 Descending Cleveland Center
Fri 10:12:53 PM 40.6800 -77.4897 105° East 468 539 21,000 -1,463 Descending Cleveland Center
Fri 10:13:54 PM 40.6258 -77.3442 116° Southeast 449 517 19,500 -1,475 Descending Cleveland Center
Fri 10:14:55 PM 40.5347 -77.2625 146° Southeast 399 459 18,000 -732 Descending Cleveland Center
Fri 10:15:57 PM 40.4453 -77.1878 148° Southeast 376 433 18,000 -439 Level Cleveland Center
Fri 10:16:58 PM 40.3561 -77.1164 149° Southeast 373 429 17,100 -1,180 Descending Cleveland Center
Fri 10:17:59 PM 40.2875 -77.0147 131° Southeast 397 457 15,600 -971 Descending Cleveland Center
Fri 10:19:14 PM 40.2439 -76.8217 106° East 389 448 14,900 -622 Descending New York Center
Fri 10:20:14 PM 40.2114 -76.6800 107° East 405 466 14,200 -650 Descending New York Center
Fri 10:21:14 PM 40.1803 -76.5497 107° East 408 470 13,600 -600 Descending New York Center
Fri 10:22:14 PM 40.1475 -76.4083 107° East 408 470 13,000 -650 Descending New York Center
Fri 10:23:14 PM 40.1197 -76.2514 103° East 402 463 12,300 -650 Descending New York Center
Fri 10:24:14 PM 40.1072 -76.1119 97° East 395 455 11,700 -650 Descending New York Center
Fri 10:25:14 PM 40.0992 -75.9675 94° East 395 455 11,000 -700 Descending New York Center
Fri 10:26:14 PM 40.0864 -75.8283 97° East 389 448 10,300 -850 Descending New York Center
Fri 10:27:14 PM 40.0808 -75.7139 94° East 369 425 9,300 -1,350 Descending New York Center
Fri 10:28:14 PM 40.0822 -75.5808 89° East 337 388 7,600 -1,550 Descending New York Center
Fri 10:29:14 PM 40.0858 -75.4864 87° East 309 356 6,200 -800 Descending New York Center
Fri 10:30:14 PM 40.0864 -75.3697 90° East 293 337 6,000 -159 Descending New York Center
Fri 10:31:07 PM 40.1000 -75.2667 80° East 297 342 5,900 -474 Descending Philadelphia TRACON
Fri 10:32:08 PM 40.0833 -75.1667 102° East 239 275 5,100 -942 Descending Philadelphia TRACON
Fri 10:33:08 PM 40.0667 -75.0833 105° East 245 282 4,000 -550 Descending Philadelphia TRACON
Fri 10:34:08 PM 40.0500 -75.0000 105° East 245 282 4,000 -53 Level Philadelphia TRACON
Fri 10:35:02 PM 40.0333 -74.9333 108° East 245 282 3,900 -526 Descending Philadelphia TRACON
Fri 10:36:02 PM 39.9667 -74.9000 159° South 222 255 3,000 -429 Descending Philadelphia TRACON
Fri 10:37:08 PM 39.9333 -74.9500 229° Southwest 198 228 3,000  Level Philadelphia TRACON
Fri 10:38:08 PM 39.9167 -75.0167 252° West 165 190 3,000 -200 Level Philadelphia TRACON
Fri 10:39:08 PM 39.9000 -75.0667 247° West 166 191 2,600 -650 Descending Philadelphia TRACON
Fri 10:40:08 PM 39.9000 -75.1167 270° West 122 140 1,700 -750 Descending Philadelphia TRACON
Fri 10:41:08 PM 39.8833 -75.1667 247° West 112 129 1,100 -619 Descending Philadelphia TRACON
Fri 10:42:14 PM 39.8833 -75.2000 270° West 112 129 400 -636 Descending Philadelphia TRACON

Login

Don't have an account? Register now (free) for customized features, flight alerts, and more!